Altoona, Kansas
Current Conditions -  °F | °C
As of 10:52 AM on Sunday 23 Nov 2014 (Local Time) from KCNU Reporting Station
Overcast Overcast  
Wind Chill: 60°   Ceiling: 2700
Heat Index: 60°   Visibility: 10mi
Dew Point: 54°   Wind: 16mph
Humidity: 80%   Direction: 180°S
Pressure: 29.42"   Gusts: NA
Location:  37.52°N, 95.66°W
Report Text: KCNU 231652Z AUTO 18014KT 10SM OVC027 16/12 A2942 RMK AO2 SLP957 T01560122
Loading
Personal Weather Stations






























Interactive Weather Map New forecast layout! Learn more

10-Day Weather Forecast

Advertisements
Track Severe Weather on mobile